createdAt,value
2018-08-19T00:00:56.167Z,86.54
2018-08-19T00:03:25.598Z,86.38
2018-08-19T00:05:55.079Z,86.81
2018-08-19T00:08:24.476Z,87.12
2018-08-19T00:11:05.734Z,86.87
2018-08-19T00:13:37.096Z,86.57
2018-08-19T00:16:07.689Z,86.31
2018-08-19T00:18:37.735Z,86.59
2018-08-19T00:21:12.758Z,86.56
2018-08-19T00:23:47.570Z,86.56
2018-08-19T00:26:17.056Z,86.64
2018-08-19T00:28:47.405Z,86.97
2018-08-19T00:31:20.505Z,86.59
2018-08-19T00:33:50.354Z,87.09
2018-08-19T00:36:27.667Z,86.36
2018-08-19T00:38:57.599Z,86.89
2018-08-19T00:41:27.405Z,87.14
2018-08-19T00:43:56.855Z,86.17
2018-08-19T00:46:31.648Z,86.81
2018-08-19T00:49:01.944Z,86.87
2018-08-19T00:51:31.396Z,86.03
2018-08-19T00:54:00.785Z,86.12
2018-08-19T00:56:30.245Z,86.26
2018-08-19T00:59:00.154Z,85.93
2018-08-19T01:01:37.216Z,86.98
2018-08-19T01:04:10.301Z,86.89
2018-08-19T01:06:45.300Z,87.34
2018-08-19T01:09:14.709Z,87.72
2018-08-19T01:11:46.582Z,86.63
2018-08-19T01:14:16.439Z,87.67
2018-08-19T01:16:47.005Z,88.26
2018-08-19T01:19:18.183Z,87.15
2018-08-19T01:21:50.742Z,87.28
2018-08-19T01:24:20.155Z,87.36
2018-08-19T01:26:50.151Z,87.21
2018-08-19T01:29:32.554Z,87.23
2018-08-19T01:32:08.400Z,87.75
2018-08-19T01:34:37.860Z,87.18
2018-08-19T01:37:07.587Z,87.37
2018-08-19T01:39:38.821Z,87.74
2018-08-19T01:42:08.894Z,88.06
2018-08-19T01:44:38.436Z,87.62
2018-08-19T01:47:07.886Z,88.00
2018-08-19T01:49:38.490Z,87.45
2018-08-19T01:52:08.704Z,87.87
2018-08-19T01:54:38.151Z,88.20
2018-08-19T01:57:08.314Z,88.83
2018-08-19T01:59:38.610Z,88.03
2018-08-19T02:02:08.451Z,87.95
2018-08-19T02:04:59.117Z,88.07
2018-08-19T02:07:28.534Z,88.50
2018-08-19T02:10:02.349Z,88.44
2018-08-19T02:12:39.664Z,88.35
2018-08-19T02:15:10.030Z,89.03
2018-08-19T02:18:15.918Z,88.65
2018-08-19T02:20:45.361Z,88.12
2018-08-19T02:23:14.758Z,88.88
2018-08-19T02:25:47.447Z,88.37
2018-08-19T02:28:23.595Z,88.97
2018-08-19T02:30:57.965Z,88.78
2018-08-19T02:33:28.037Z,88.90
2018-08-19T02:36:11.789Z,88.18
2018-08-19T02:38:41.258Z,87.78
2018-08-19T02:41:10.705Z,88.23
2018-08-19T02:43:46.493Z,88.57
2018-08-19T02:46:15.900Z,88.09
2018-08-19T02:48:47.522Z,88.50
2018-08-19T02:51:18.072Z,88.26
2018-08-19T02:53:49.602Z,88.04
2018-08-19T02:56:19.825Z,88.60
2018-08-19T02:58:49.659Z,89.19
2018-08-19T03:01:19.407Z,87.75
2018-08-19T03:03:49.304Z,87.83
2018-08-19T03:06:18.702Z,88.49
2018-08-19T03:08:53.167Z,87.82
2018-08-19T03:11:23.618Z,87.70
2018-08-19T03:13:53.003Z,87.40
2018-08-19T03:16:22.885Z,88.82
2018-08-19T03:18:53.311Z,88.69
2018-08-19T03:21:23.522Z,88.30
2018-08-19T03:23:54.076Z,87.81
2018-08-19T03:26:23.524Z,88.62
2018-08-19T03:28:52.925Z,88.02
2018-08-19T03:31:22.390Z,88.25
2018-08-19T03:33:52.287Z,88.59
2018-08-19T03:36:22.619Z,88.26
2018-08-19T03:38:52.138Z,88.96
2018-08-19T03:41:21.622Z,88.54
2018-08-19T03:43:55.561Z,89.36
2018-08-19T03:46:24.932Z,88.97
2018-08-19T03:48:54.659Z,88.34
2018-08-19T03:51:24.096Z,88.12
2018-08-19T03:53:53.531Z,88.04
2018-08-19T03:56:26.911Z,88.34
2018-08-19T03:58:58.600Z,88.36
2018-08-19T04:01:38.495Z,88.59
2018-08-19T04:04:09.902Z,88.52
2018-08-19T04:06:41.292Z,89.02
2018-08-19T04:09:11.459Z,89.47
2018-08-19T04:11:40.874Z,89.36
2018-08-19T04:14:26.175Z,88.51
2018-08-19T04:16:57.420Z,88.94
2018-08-19T04:19:27.854Z,88.84
2018-08-19T04:22:01.642Z,89.44
2018-08-19T04:24:32.398Z,89.15
2018-08-19T04:27:09.933Z,89.26
2018-08-19T04:29:39.591Z,88.85
2018-08-19T04:32:19.160Z,88.70
2018-08-19T04:34:48.600Z,89.05
2018-08-19T04:37:18.000Z,89.21
2018-08-19T04:39:52.485Z,89.44
2018-08-19T04:42:22.007Z,89.30
2018-08-19T04:44:54.550Z,88.76
2018-08-19T04:47:40.395Z,88.83
2018-08-19T04:50:13.856Z,89.22
2018-08-19T04:52:43.287Z,89.47
2018-08-19T04:55:13.080Z,89.23
2018-08-19T04:57:42.503Z,89.61
2018-08-19T05:00:11.901Z,90.03
2018-08-19T05:02:42.276Z,88.70
2018-08-19T05:05:11.947Z,89.75
2018-08-19T05:07:43.525Z,89.74
2018-08-19T05:10:13.018Z,88.61
2018-08-19T05:15:21.654Z,89.21
2018-08-19T05:17:51.107Z,89.65
2018-08-19T05:20:20.559Z,89.49
2018-08-19T05:22:50.483Z,88.38
2018-08-19T05:25:19.937Z,89.14
2018-08-19T05:27:58.211Z,89.77
2018-08-19T05:30:27.672Z,89.42
2018-08-19T05:33:02.325Z,89.38
2018-08-19T05:35:32.935Z,89.77
2018-08-19T05:38:03.545Z,90.34
2018-08-19T05:40:33.731Z,89.84
2018-08-19T05:43:03.129Z,89.42
2018-08-19T05:45:32.674Z,88.99
2018-08-19T05:48:09.544Z,90.41
2018-08-19T05:50:39.371Z,88.85
2018-08-19T05:53:09.347Z,89.81
2018-08-19T05:55:39.456Z,87.86
2018-08-19T05:58:08.923Z,87.51
2018-08-19T06:00:41.436Z,86.60
2018-08-19T06:03:11.598Z,87.75
2018-08-19T06:05:43.006Z,85.55
2018-08-19T06:08:13.454Z,83.01
2018-08-19T06:10:43.378Z,82.98
2018-08-19T06:13:14.125Z,83.97
2018-08-19T06:15:43.701Z,80.87
2018-08-19T06:18:13.185Z,80.83
2018-08-19T06:20:42.876Z,80.31
2018-08-19T06:23:13.102Z,79.71
2018-08-19T06:25:43.653Z,78.58
2018-08-19T06:28:14.942Z,77.40
2018-08-19T06:30:47.896Z,77.85
2018-08-19T06:33:17.746Z,78.38
2018-08-19T06:35:47.996Z,77.40
2018-08-19T06:38:18.538Z,76.11
2018-08-19T06:40:56.239Z,75.81
2018-08-19T06:43:25.647Z,75.72
2018-08-19T06:46:03.683Z,74.98
2018-08-19T06:48:33.207Z,75.16
2018-08-19T06:51:04.369Z,75.64
2018-08-19T06:53:40.995Z,74.79
2018-08-19T06:56:11.238Z,74.20
2018-08-19T06:58:41.570Z,74.68
2018-08-19T07:01:12.666Z,74.02
2018-08-19T07:03:48.013Z,72.51
2018-08-19T07:06:19.674Z,72.61
2018-08-19T07:08:49.086Z,71.16
2018-08-19T07:11:19.966Z,72.36
2018-08-19T07:14:21.308Z,70.31
2018-08-19T07:16:50.765Z,69.73
2018-08-19T07:19:20.819Z,70.93
2018-08-19T07:21:55.942Z,70.09
2018-08-19T07:24:26.045Z,70.91
2018-08-19T07:28:11.874Z,69.48
2018-08-19T07:30:42.342Z,68.02
2018-08-19T07:33:14.918Z,67.43
2018-08-19T07:35:45.729Z,68.13
2018-08-19T07:38:17.229Z,68.51
2018-08-19T07:40:49.938Z,69.06
2018-08-19T07:43:19.939Z,66.71
2018-08-19T07:45:49.402Z,66.66
2018-08-19T07:48:19.544Z,66.82
2018-08-19T07:50:49.232Z,67.97
2018-08-19T07:53:20.095Z,66.56
2018-08-19T07:55:49.555Z,67.33
2018-08-19T07:58:35.357Z,65.00
2018-08-19T08:01:08.064Z,65.60
2018-08-19T08:03:39.454Z,63.59
2018-08-19T08:06:08.962Z,64.76
2018-08-19T08:08:42.166Z,65.98
2018-08-19T08:11:14.331Z,64.48
2018-08-19T08:13:48.390Z,64.12
2018-08-19T08:16:18.469Z,65.14
2018-08-19T08:18:49.845Z,64.90
2018-08-19T08:21:24.142Z,64.64
2018-08-19T08:23:53.478Z,63.95
2018-08-19T08:26:23.990Z,64.04
2018-08-19T08:29:00.149Z,64.43
2018-08-19T08:31:29.527Z,63.46
2018-08-19T08:34:00.699Z,63.03
2018-08-19T08:36:30.999Z,61.35
2018-08-19T08:39:02.617Z,64.11
2018-08-19T08:41:32.027Z,62.13
2018-08-19T08:44:01.846Z,62.30
2018-08-19T08:46:32.171Z,61.66
2018-08-19T08:49:04.179Z,60.83
2018-08-19T08:51:33.564Z,60.28
2018-08-19T08:54:03.487Z,60.89
2018-08-19T08:56:32.987Z,59.98
2018-08-19T08:59:02.491Z,59.03
2018-08-19T09:01:32.335Z,56.83
2018-08-19T09:04:02.110Z,58.00
2018-08-19T09:06:31.484Z,57.56
2018-08-19T09:09:01.600Z,58.08
2018-08-19T09:11:31.407Z,57.55
2018-08-19T09:14:01.649Z,59.16
2018-08-19T09:16:31.946Z,57.57
2018-08-19T09:19:02.684Z,57.83
2018-08-19T09:21:33.062Z,57.42
2018-08-19T09:24:03.964Z,57.70
2018-08-19T09:26:34.718Z,55.14
2018-08-19T09:29:07.249Z,55.12
2018-08-19T09:31:44.384Z,56.34
2018-08-19T09:34:22.104Z,53.88
2018-08-19T09:36:53.179Z,53.78
2018-08-19T09:39:23.218Z,53.26
2018-08-19T09:41:58.747Z,54.00
2018-08-19T09:44:28.826Z,53.97
2018-08-19T09:46:58.258Z,53.67
2018-08-19T09:49:27.634Z,52.76
2018-08-19T09:52:01.275Z,53.48
2018-08-19T09:54:35.371Z,54.63
2018-08-19T09:57:06.628Z,52.35
2018-08-19T09:59:51.755Z,52.91
2018-08-19T10:02:22.291Z,52.56
2018-08-19T10:04:53.684Z,52.69
2018-08-19T10:07:23.903Z,51.72
2018-08-19T10:09:53.329Z,48.39
2018-08-19T10:12:23.561Z,48.03
2018-08-19T10:14:55.028Z,49.80
2018-08-19T10:17:25.750Z,50.16
2018-08-19T10:19:55.575Z,49.39
2018-08-19T10:22:30.070Z,49.69
2018-08-19T10:25:00.463Z,49.27
2018-08-19T10:27:29.854Z,49.40
2018-08-19T10:29:59.349Z,49.91
2018-08-19T10:32:28.843Z,46.91
2018-08-19T10:34:58.832Z,45.74
2018-08-19T10:37:32.480Z,47.24
2018-08-19T10:40:01.930Z,46.18
2018-08-19T10:42:33.046Z,46.13
2018-08-19T10:45:11.542Z,45.49
2018-08-19T10:47:43.387Z,45.11
2018-08-19T10:50:17.290Z,45.26
2018-08-19T10:52:46.678Z,45.66
2018-08-19T10:55:16.515Z,44.96
2018-08-19T10:57:48.983Z,45.04
2018-08-19T11:00:22.080Z,44.48
2018-08-19T11:02:51.603Z,44.91
2018-08-19T11:05:21.509Z,45.43
2018-08-19T11:08:00.177Z,45.04
2018-08-19T11:10:32.987Z,44.81
2018-08-19T11:13:03.004Z,43.85
2018-08-19T11:15:59.292Z,43.30
2018-08-19T11:18:51.111Z,43.93
2018-08-19T11:21:27.645Z,42.32
2018-08-19T11:23:59.196Z,43.25
2018-08-19T11:26:30.387Z,44.48
2018-08-19T11:29:01.228Z,42.54
2018-08-19T11:31:37.172Z,42.19
2018-08-19T11:34:08.682Z,43.34
2018-08-19T11:36:44.905Z,42.89
2018-08-19T11:39:16.679Z,43.06
2018-08-19T11:41:46.479Z,42.67
2018-08-19T11:44:17.394Z,44.42
2018-08-19T11:46:48.208Z,44.11
2018-08-19T11:49:19.541Z,43.74
2018-08-19T11:51:51.931Z,41.84
2018-08-19T11:54:23.755Z,42.78
2018-08-19T11:57:01.155Z,42.12
2018-08-19T11:59:35.691Z,42.33
2018-08-19T12:02:10.103Z,41.69
2018-08-19T12:04:47.795Z,43.13
2018-08-19T12:07:17.596Z,43.92
2018-08-19T12:09:55.358Z,40.83
2018-08-19T12:12:40.504Z,41.95
2018-08-19T12:15:10.008Z,41.51
2018-08-19T12:17:40.974Z,42.21
2018-08-19T12:20:11.290Z,42.32
2018-08-19T12:22:44.367Z,41.94
2018-08-19T12:27:51.467Z,41.99
2018-08-19T12:30:22.055Z,41.91
2018-08-19T12:32:51.572Z,41.74
2018-08-19T12:35:21.966Z,42.21
2018-08-19T12:37:51.374Z,42.38
2018-08-19T12:40:21.896Z,41.21
2018-08-19T12:42:55.353Z,40.89
2018-08-19T12:45:27.209Z,39.62
2018-08-19T12:47:58.603Z,39.03
2018-08-19T12:50:28.035Z,40.03
2018-08-19T12:52:58.081Z,39.60
2018-08-19T12:55:31.619Z,38.32
2018-08-19T12:58:06.491Z,38.84
2018-08-19T13:00:36.534Z,39.33
2018-08-19T13:03:08.007Z,39.06
2018-08-19T13:05:51.996Z,39.55
2018-08-19T13:08:23.441Z,40.48
2018-08-19T13:10:53.294Z,40.23
2018-08-19T13:13:22.648Z,41.35
2018-08-19T13:15:53.708Z,40.98
2018-08-19T13:18:45.121Z,42.15
2018-08-19T13:21:19.493Z,40.00
2018-08-19T13:23:49.779Z,39.97
2018-08-19T13:26:19.190Z,41.89
2018-08-19T13:28:54.734Z,41.41
2018-08-19T13:31:29.884Z,40.93
2018-08-19T13:34:00.646Z,39.92
2018-08-19T13:36:30.514Z,40.26
2018-08-19T13:38:59.886Z,40.69
2018-08-19T13:41:30.255Z,41.05
2018-08-19T13:43:59.642Z,40.52
2018-08-19T13:46:31.658Z,40.43
2018-08-19T13:49:01.040Z,39.98
2018-08-19T13:51:32.253Z,39.39
2018-08-19T13:54:02.162Z,38.98
2018-08-19T13:56:31.522Z,40.66
2018-08-19T13:59:01.102Z,39.79
2018-08-19T14:01:30.962Z,40.50
2018-08-19T14:04:01.266Z,41.27
2018-08-19T14:06:35.571Z,42.67
2018-08-19T14:09:05.779Z,40.72
2018-08-19T14:11:35.180Z,39.35
2018-08-19T14:14:08.043Z,38.53
2018-08-19T14:16:38.212Z,37.86
2018-08-19T14:19:09.035Z,35.58
2018-08-19T14:21:39.419Z,35.00
2018-08-19T14:24:10.018Z,36.71
2018-08-19T14:26:41.772Z,38.04
2018-08-19T14:29:12.407Z,39.30
2018-08-19T14:31:44.034Z,40.16
2018-08-19T14:34:14.383Z,38.72
2018-08-19T14:36:44.181Z,36.78
2018-08-19T14:39:15.126Z,37.02
2018-08-19T14:41:46.774Z,35.69
2018-08-19T14:44:16.159Z,35.59
2018-08-19T14:46:48.066Z,36.05
2018-08-19T14:49:18.582Z,35.20
2018-08-19T14:52:00.798Z,34.32
2018-08-19T14:54:31.175Z,34.86
2018-08-19T14:57:00.538Z,33.19
2018-08-19T14:59:30.410Z,34.24
2018-08-19T15:02:00.498Z,34.17
2018-08-19T15:04:32.526Z,34.02
2018-08-19T15:07:04.570Z,34.22
2018-08-19T15:09:35.768Z,34.75
2018-08-19T15:12:12.301Z,33.68
2018-08-19T15:14:48.567Z,33.13
2018-08-19T15:17:18.736Z,32.91
2018-08-19T15:19:51.708Z,33.65
2018-08-19T15:22:24.511Z,29.25
2018-08-19T15:24:54.634Z,30.39
2018-08-19T15:27:25.275Z,30.43
2018-08-19T15:29:55.738Z,29.85
2018-08-19T15:32:26.387Z,30.30
2018-08-19T15:34:55.841Z,30.60
2018-08-19T15:37:25.270Z,30.79
2018-08-19T15:39:57.907Z,29.84
2018-08-19T15:42:34.457Z,30.14
2018-08-19T15:45:03.810Z,30.07
2018-08-19T15:47:33.893Z,30.73
2018-08-19T15:52:53.153Z,29.51
2018-08-19T15:55:25.524Z,30.24
2018-08-19T15:57:57.255Z,29.83
2018-08-19T16:00:27.371Z,31.07
2018-08-19T16:03:24.396Z,29.75
2018-08-19T16:06:02.107Z,30.19
2018-08-19T16:08:31.552Z,31.25
2018-08-19T16:11:01.512Z,32.75
2018-08-19T16:13:35.518Z,33.19
2018-08-19T16:16:05.442Z,34.00
2018-08-19T16:19:11.859Z,34.71
2018-08-19T16:21:42.187Z,34.86
2018-08-19T16:24:12.546Z,34.30
2018-08-19T16:26:42.952Z,35.45
2018-08-19T16:29:14.195Z,36.09
2018-08-19T16:31:43.727Z,35.03
2018-08-19T16:34:17.015Z,35.93
2018-08-19T16:36:46.634Z,35.71
2018-08-19T16:39:18.053Z,37.14
2018-08-19T16:41:47.626Z,36.20
2018-08-19T16:44:17.149Z,36.86
2018-08-19T16:46:47.102Z,37.12
2018-08-19T16:49:16.566Z,36.78
2018-08-19T16:51:46.061Z,37.06
2018-08-19T16:54:16.227Z,38.19
2018-08-19T16:56:45.651Z,37.03
2018-08-19T16:59:16.479Z,37.13
2018-08-19T17:01:49.016Z,38.24
2018-08-19T17:04:21.085Z,39.63
2018-08-19T17:06:52.023Z,39.10
2018-08-19T17:09:22.629Z,40.03
2018-08-19T17:11:52.306Z,41.70
2018-08-19T17:14:24.853Z,40.44
2018-08-19T17:17:02.347Z,37.84
2018-08-19T17:19:35.702Z,36.76
2018-08-19T17:22:09.526Z,38.03
2018-08-19T17:24:40.347Z,36.99
2018-08-19T17:27:12.207Z,38.04
2018-08-19T17:29:43.044Z,37.08
2018-08-19T17:32:17.292Z,36.45
2018-08-19T17:34:47.521Z,36.16
2018-08-19T17:37:19.785Z,37.59
2018-08-19T17:39:51.703Z,39.03
2018-08-19T17:42:22.669Z,37.96
2018-08-19T17:44:52.795Z,40.24
2018-08-19T17:47:26.145Z,41.09
2018-08-19T17:49:55.679Z,41.82
2018-08-19T17:52:26.387Z,42.76
2018-08-19T17:54:56.891Z,42.74
2018-08-19T17:57:28.542Z,44.25
2018-08-19T18:00:00.745Z,45.39
2018-08-19T18:02:31.892Z,45.17
2018-08-19T18:05:02.784Z,44.78
2018-08-19T18:07:33.164Z,46.07
2018-08-19T18:10:09.866Z,44.84
2018-08-19T18:12:39.818Z,46.81
2018-08-19T18:15:12.406Z,45.83
2018-08-19T18:17:48.396Z,44.94
2018-08-19T18:20:50.438Z,45.16
2018-08-19T18:23:32.557Z,46.59
2018-08-19T18:26:02.101Z,46.81
2018-08-19T18:28:58.804Z,46.15
2018-08-19T18:31:31.541Z,46.76
2018-08-19T18:34:01.649Z,46.26
2018-08-19T18:36:35.649Z,47.42
2018-08-19T18:39:09.166Z,47.50
2018-08-19T18:41:40.613Z,47.18
2018-08-19T18:44:12.910Z,46.95
2018-08-19T18:46:43.369Z,47.75
2018-08-19T18:49:14.481Z,47.58
2018-08-19T18:51:52.429Z,48.55
2018-08-19T18:54:32.720Z,48.45
2018-08-19T18:57:04.275Z,49.86
2018-08-19T18:59:36.555Z,49.69
2018-08-19T19:02:05.989Z,48.83
2018-08-19T19:04:35.434Z,49.73
2018-08-19T19:07:06.154Z,50.22
2018-08-19T19:09:48.883Z,49.49
2018-08-19T19:12:21.600Z,50.63
2018-08-19T19:14:52.066Z,51.33
2018-08-19T19:17:24.390Z,51.60
2018-08-19T19:19:53.962Z,51.78
2018-08-19T19:22:25.103Z,52.10
2018-08-19T19:24:56.710Z,51.92
2018-08-19T19:27:26.470Z,52.51
2018-08-19T19:30:00.791Z,52.45
2018-08-19T19:32:30.250Z,52.79
2018-08-19T19:35:21.167Z,52.84
2018-08-19T19:37:50.560Z,54.74
2018-08-19T19:40:24.627Z,54.29
2018-08-19T19:42:54.773Z,54.26
2018-08-19T19:45:25.417Z,56.01
2018-08-19T19:47:54.890Z,55.72
2018-08-19T19:50:24.441Z,55.79
2018-08-19T19:52:59.429Z,56.22
2018-08-19T19:55:29.958Z,55.65
2018-08-19T19:58:02.690Z,56.09
2018-08-19T20:01:39.288Z,55.43
2018-08-19T20:04:09.138Z,56.21
2018-08-19T20:06:49.669Z,55.76
2018-08-19T20:09:22.953Z,56.75
2018-08-19T20:14:29.892Z,56.55
2018-08-19T20:17:03.391Z,57.36
2018-08-19T20:19:33.503Z,57.47
2018-08-19T20:22:03.833Z,56.17
2018-08-19T20:24:34.808Z,57.75
2018-08-19T20:27:05.475Z,57.31
2018-08-19T20:29:36.419Z,56.98
2018-08-19T20:32:10.222Z,56.38
2018-08-19T20:34:45.420Z,58.07
2018-08-19T20:37:14.991Z,57.44
2018-08-19T20:39:45.968Z,59.25
2018-08-19T20:42:20.762Z,58.77
2018-08-19T20:44:50.304Z,59.52
2018-08-19T20:47:23.639Z,59.13
2018-08-19T20:49:55.306Z,59.43
2018-08-19T20:52:34.262Z,59.50
2018-08-19T20:55:05.312Z,59.70
2018-08-19T20:57:38.801Z,61.70
2018-08-19T21:00:10.293Z,60.75
2018-08-19T21:02:40.416Z,61.32
2018-08-19T21:05:10.980Z,60.57
2018-08-19T21:07:47.915Z,61.98
2018-08-19T21:10:22.841Z,61.89
2018-08-19T21:12:54.453Z,62.00
2018-08-19T21:15:28.339Z,62.58
2018-08-19T21:17:57.742Z,62.36
2018-08-19T21:20:27.967Z,63.12
2018-08-19T21:22:58.308Z,62.88
2018-08-19T21:25:28.756Z,62.89
2018-08-19T21:28:00.227Z,62.04
2018-08-19T21:30:33.819Z,63.48
2018-08-19T21:33:05.722Z,64.21
2018-08-19T21:36:38.466Z,63.06
2018-08-19T21:39:10.353Z,63.46
2018-08-19T21:41:49.504Z,62.55
2018-08-19T21:44:21.080Z,63.29
2018-08-19T21:46:51.826Z,64.06
2018-08-19T21:49:22.287Z,63.46
2018-08-19T21:51:53.308Z,63.18
2018-08-19T21:54:25.541Z,63.66
2018-08-19T21:56:56.847Z,63.00
2018-08-19T21:59:30.391Z,63.25
2018-08-19T22:02:05.140Z,62.81
2018-08-19T22:04:34.561Z,63.72
2018-08-19T22:07:05.319Z,63.62
2018-08-19T22:09:37.474Z,64.30
2018-08-19T22:12:08.806Z,64.04
2018-08-19T22:14:40.346Z,64.20
2018-08-19T22:17:10.837Z,64.62
2018-08-19T22:19:41.327Z,65.27
2018-08-19T22:22:12.278Z,65.25
2018-08-19T22:24:42.606Z,65.44
2018-08-19T22:27:19.635Z,64.41
2018-08-19T22:29:51.471Z,65.95
2018-08-19T22:32:22.139Z,66.03
2018-08-19T22:37:26.824Z,66.82
2018-08-19T22:39:58.556Z,66.20
2018-08-19T22:42:28.634Z,65.52
2018-08-19T22:44:59.587Z,66.61
2018-08-19T22:47:33.136Z,65.37
2018-08-19T22:50:03.555Z,67.43
2018-08-19T22:52:33.686Z,66.60
2018-08-19T22:55:05.242Z,67.38
2018-08-19T22:58:10.647Z,67.70
2018-08-19T23:00:40.094Z,66.66
2018-08-19T23:03:13.831Z,66.62
2018-08-19T23:05:46.319Z,67.99
2018-08-19T23:08:19.967Z,67.85
2018-08-19T23:10:49.406Z,67.67
2018-08-19T23:13:35.191Z,68.17
2018-08-19T23:16:11.145Z,68.41
2018-08-19T23:18:43.350Z,68.37
2018-08-19T23:21:13.845Z,68.52
2018-08-19T23:23:43.745Z,67.93
2018-08-19T23:26:13.245Z,69.57
2018-08-19T23:28:43.248Z,69.16
2018-08-19T23:31:12.708Z,68.97
2018-08-19T23:33:42.547Z,68.45
2018-08-19T23:36:12.922Z,69.96
2018-08-19T23:38:42.323Z,69.18
2018-08-19T23:41:11.714Z,68.91
2018-08-19T23:43:42.298Z,69.09
2018-08-19T23:46:13.377Z,68.78
2018-08-19T23:48:43.536Z,68.16
2018-08-19T23:51:15.159Z,69.11
2018-08-19T23:53:44.569Z,68.05
2018-08-19T23:56:14.331Z,68.58
2018-08-19T23:58:46.672Z,68.95
